Terminal Aerodrome Forecast
Issued by NWS Wakefield, VA

Home | Current Version | Previous Version | Text Only | Print | Product List | Glossary On
Versions: 1 2 3 4 5 6 7 8 9 10 11 12 13 14
079
FTUS41 KAKQ 281727
TAFECG
TAF
KECG 281727Z 2818/2918 10007KT P6SM BKN025 OVC040
     FM282000 15006KT P6SM VCSH BKN040
     FM290300 14004KT P6SM -SHRA OVC040
     FM291000 14005KT P6SM BKN050=

USA.gov is the U.S. government's official web portal to all federal, state and local government web resources and services.